sensor_id;sensor_type;location;lat;lon;timestamp;P1;durP1;ratioP1;P2;durP2;ratioP2
65234;SDS011;51820;48.374;10.930;2024-03-23T00:53:35;7.90;;;2.67;;
65234;SDS011;51820;48.374;10.930;2024-03-23T00:56:03;8.38;;;2.80;;
65234;SDS011;51820;48.374;10.930;2024-03-23T00:58:30;6.93;;;2.70;;
65234;SDS011;51820;48.374;10.930;2024-03-23T01:00:57;7.20;;;2.75;;
65234;SDS011;51820;48.374;10.930;2024-03-23T01:03:24;6.13;;;2.70;;
65234;SDS011;51820;48.374;10.930;2024-03-23T01:05:51;6.55;;;2.60;;
65234;SDS011;51820;48.374;10.930;2024-03-23T01:08:18;8.77;;;3.00;;
65234;SDS011;51820;48.374;10.930;2024-03-23T01:10:54;6.47;;;2.60;;
65234;SDS011;51820;48.374;10.930;2024-03-23T01:13:21;5.40;;;2.42;;
65234;SDS011;51820;48.374;10.930;2024-03-23T01:15:49;5.47;;;2.50;;
65234;SDS011;51820;48.374;10.930;2024-03-23T01:18:17;6.22;;;3.00;;
65234;SDS011;51820;48.374;10.930;2024-03-23T01:20:44;7.70;;;2.55;;
65234;SDS011;51820;48.374;10.930;2024-03-23T01:23:11;5.93;;;2.50;;
65234;SDS011;51820;48.374;10.930;2024-03-23T01:25:38;11.55;;;3.20;;
65234;SDS011;51820;48.374;10.930;2024-03-23T01:28:07;6.20;;;2.17;;
65234;SDS011;51820;48.374;10.930;2024-03-23T01:30:34;8.57;;;2.50;;
65234;SDS011;51820;48.374;10.930;2024-03-23T01:33:01;7.00;;;2.53;;
65234;SDS011;51820;48.374;10.930;2024-03-23T01:35:29;6.77;;;3.00;;
65234;SDS011;51820;48.374;10.930;2024-03-23T01:37:55;6.43;;;2.47;;
65234;SDS011;51820;48.374;10.930;2024-03-23T01:40:23;9.20;;;2.70;;
65234;SDS011;51820;48.374;10.930;2024-03-23T01:43:01;5.82;;;2.80;;
65234;SDS011;51820;48.374;10.930;2024-03-23T01:45:32;8.75;;;2.78;;
65234;SDS011;51820;48.374;10.930;2024-03-23T01:47:58;6.17;;;2.70;;
65234;SDS011;51820;48.374;10.930;2024-03-23T01:50:26;8.05;;;2.75;;
65234;SDS011;51820;48.374;10.930;2024-03-23T01:52:53;6.80;;;2.85;;
65234;SDS011;51820;48.374;10.930;2024-03-23T01:55:20;8.13;;;3.10;;
65234;SDS011;51820;48.374;10.930;2024-03-23T01:57:47;6.85;;;2.90;;
65234;SDS011;51820;48.374;10.930;2024-03-23T02:00:14;5.97;;;2.33;;
65234;SDS011;51820;48.374;10.930;2024-03-23T02:02:43;9.45;;;2.83;;
65234;SDS011;51820;48.374;10.930;2024-03-23T02:05:11;9.77;;;3.10;;
65234;SDS011;51820;48.374;10.930;2024-03-23T02:07:38;5.85;;;2.55;;
65234;SDS011;51820;48.374;10.930;2024-03-23T02:10:06;6.78;;;2.90;;
65234;SDS011;51820;48.374;10.930;2024-03-23T02:12:33;7.03;;;2.73;;
65234;SDS011;51820;48.374;10.930;2024-03-23T02:15:00;6.57;;;2.72;;
65234;SDS011;51820;48.374;10.930;2024-03-23T02:17:27;8.43;;;3.05;;
65234;SDS011;51820;48.374;10.930;2024-03-23T02:19:59;10.38;;;2.92;;
65234;SDS011;51820;48.374;10.930;2024-03-23T02:22:25;8.02;;;3.40;;
65234;SDS011;51820;48.374;10.930;2024-03-23T02:25:04;7.70;;;2.60;;
65234;SDS011;51820;48.374;10.930;2024-03-23T02:27:30;9.25;;;2.95;;
65234;SDS011;51820;48.374;10.930;2024-03-23T02:29:58;5.65;;;2.58;;
65234;SDS011;51820;48.374;10.930;2024-03-23T02:32:25;10.43;;;2.95;;
65234;SDS011;51820;48.374;10.930;2024-03-23T02:34:52;6.68;;;3.00;;
65234;SDS011;51820;48.374;10.930;2024-03-23T02:37:19;8.13;;;3.10;;
65234;SDS011;51820;48.374;10.930;2024-03-23T02:39:47;6.57;;;2.80;;
65234;SDS011;51820;48.374;10.930;2024-03-23T02:42:15;6.10;;;2.70;;
65234;SDS011;51820;48.374;10.930;2024-03-23T02:44:43;5.97;;;2.60;;
65234;SDS011;51820;48.374;10.930;2024-03-23T02:47:09;5.72;;;2.47;;
65234;SDS011;51820;48.374;10.930;2024-03-23T02:49:37;6.97;;;2.50;;
65234;SDS011;51820;48.374;10.930;2024-03-23T02:52:03;7.03;;;3.08;;
65234;SDS011;51820;48.374;10.930;2024-03-23T02:54:31;7.95;;;3.03;;
65234;SDS011;51820;48.374;10.930;2024-03-23T02:56:57;10.55;;;2.60;;
65234;SDS011;51820;48.374;10.930;2024-03-23T02:59:26;6.22;;;2.70;;
65234;SDS011;51820;48.374;10.930;2024-03-23T03:01:52;7.60;;;2.60;;
65234;SDS011;51820;48.374;10.930;2024-03-23T03:04:21;7.50;;;3.20;;
65234;SDS011;51820;48.374;10.930;2024-03-23T03:06:48;6.63;;;2.75;;
65234;SDS011;51820;48.374;10.930;2024-03-23T03:09:15;8.15;;;2.70;;
65234;SDS011;51820;48.374;10.930;2024-03-23T03:11:42;6.95;;;2.90;;
65234;SDS011;51820;48.374;10.930;2024-03-23T03:14:09;9.37;;;3.43;;
65234;SDS011;51820;48.374;10.930;2024-03-23T03:16:37;7.55;;;3.30;;
65234;SDS011;51820;48.374;10.930;2024-03-23T03:19:04;7.75;;;2.75;;
65234;SDS011;51820;48.374;10.930;2024-03-23T03:21:31;5.50;;;2.50;;
65234;SDS011;51820;48.374;10.930;2024-03-23T03:23:59;5.85;;;2.63;;
65234;SDS011;51820;48.374;10.930;2024-03-23T03:26:25;9.27;;;3.07;;
65234;SDS011;51820;48.374;10.930;2024-03-23T03:28:53;5.88;;;2.35;;
65234;SDS011;51820;48.374;10.930;2024-03-23T03:31:20;5.72;;;2.40;;
65234;SDS011;51820;48.374;10.930;2024-03-23T03:33:49;6.53;;;2.50;;
65234;SDS011;51820;48.374;10.930;2024-03-23T03:36:16;6.80;;;2.63;;
65234;SDS011;51820;48.374;10.930;2024-03-23T03:38:43;5.67;;;2.60;;
65234;SDS011;51820;48.374;10.930;2024-03-23T03:41:10;6.85;;;2.53;;
65234;SDS011;51820;48.374;10.930;2024-03-23T03:43:38;6.45;;;2.70;;
65234;SDS011;51820;48.374;10.930;2024-03-23T03:46:05;5.38;;;2.45;;
65234;SDS011;51820;48.374;10.930;2024-03-23T03:48:33;7.18;;;2.75;;
65234;SDS011;51820;48.374;10.930;2024-03-23T03:51:01;6.90;;;2.60;;
65234;SDS011;51820;48.374;10.930;2024-03-23T03:53:30;5.28;;;2.15;;
65234;SDS011;51820;48.374;10.930;2024-03-23T03:56:00;5.53;;;2.42;;
65234;SDS011;51820;48.374;10.930;2024-03-23T03:58:28;6.30;;;2.38;;
65234;SDS011;51820;48.374;10.930;2024-03-23T04:00:55;9.45;;;4.10;;
65234;SDS011;51820;48.374;10.930;2024-03-23T04:03:22;8.43;;;3.30;;
65234;SDS011;51820;48.374;10.930;2024-03-23T04:05:52;10.40;;;4.45;;
65234;SDS011;51820;48.374;10.930;2024-03-23T04:08:21;7.05;;;3.63;;
65234;SDS011;51820;48.374;10.930;2024-03-23T04:10:49;9.93;;;3.00;;
65234;SDS011;51820;48.374;10.930;2024-03-23T04:13:15;5.93;;;2.60;;
65234;SDS011;51820;48.374;10.930;2024-03-23T04:15:43;6.17;;;2.83;;
65234;SDS011;51820;48.374;10.930;2024-03-23T04:18:10;6.80;;;2.50;;
65234;SDS011;51820;48.374;10.930;2024-03-23T04:20:37;6.05;;;2.67;;
65234;SDS011;51820;48.374;10.930;2024-03-23T04:23:04;7.78;;;2.63;;
65234;SDS011;51820;48.374;10.930;2024-03-23T04:25:36;5.75;;;2.20;;
65234;SDS011;51820;48.374;10.930;2024-03-23T04:28:02;7.00;;;2.60;;
65234;SDS011;51820;48.374;10.930;2024-03-23T04:30:30;9.63;;;2.60;;
65234;SDS011;51820;48.374;10.930;2024-03-23T04:32:57;6.13;;;2.65;;
65234;SDS011;51820;48.374;10.930;2024-03-23T04:35:26;6.22;;;2.40;;
65234;SDS011;51820;48.374;10.930;2024-03-23T04:37:52;8.88;;;2.30;;
65234;SDS011;51820;48.374;10.930;2024-03-23T04:40:21;7.53;;;2.20;;
65234;SDS011;51820;48.374;10.930;2024-03-23T04:42:50;5.85;;;2.50;;
65234;SDS011;51820;48.374;10.930;2024-03-23T04:45:17;6.93;;;2.30;;
65234;SDS011;51820;48.374;10.930;2024-03-23T04:47:45;6.75;;;3.25;;
65234;SDS011;51820;48.374;10.930;2024-03-23T04:50:12;6.80;;;2.85;;
65234;SDS011;51820;48.374;10.930;2024-03-23T04:52:39;5.87;;;2.30;;
65234;SDS011;51820;48.374;10.930;2024-03-23T04:55:08;7.50;;;2.40;;
65234;SDS011;51820;48.374;10.930;2024-03-23T04:57:37;6.68;;;2.42;;
65234;SDS011;51820;48.374;10.930;2024-03-23T05:00:06;5.75;;;2.35;;
65234;SDS011;51820;48.374;10.930;2024-03-23T05:02:42;8.18;;;2.15;;
65234;SDS011;51820;48.374;10.930;2024-03-23T05:05:11;9.23;;;2.50;;
65234;SDS011;51820;48.374;10.930;2024-03-23T05:07:37;5.88;;;2.60;;
65234;SDS011;51820;48.374;10.930;2024-03-23T05:10:08;5.53;;;2.40;;
65234;SDS011;51820;48.374;10.930;2024-03-23T05:12:36;6.07;;;2.45;;
65234;SDS011;51820;48.374;10.930;2024-03-23T05:15:08;6.00;;;2.40;;
65234;SDS011;51820;48.374;10.930;2024-03-23T05:17:35;5.50;;;2.13;;
65234;SDS011;51820;48.374;10.930;2024-03-23T05:20:03;5.60;;;2.45;;
65234;SDS011;51820;48.374;10.930;2024-03-23T05:22:30;7.18;;;2.28;;
65234;SDS011;51820;48.374;10.930;2024-03-23T05:24:58;8.63;;;2.58;;
65234;SDS011;51820;48.374;10.930;2024-03-23T05:27:24;6.45;;;2.60;;
65234;SDS011;51820;48.374;10.930;2024-03-23T05:29:52;5.63;;;2.23;;
65234;SDS011;51820;48.374;10.930;2024-03-23T05:32:20;6.03;;;2.28;;
65234;SDS011;51820;48.374;10.930;2024-03-23T05:34:50;9.50;;;2.58;;
65234;SDS011;51820;48.374;10.930;2024-03-23T05:37:21;6.65;;;2.53;;
65234;SDS011;51820;48.374;10.930;2024-03-23T05:39:51;5.90;;;2.38;;
65234;SDS011;51820;48.374;10.930;2024-03-23T05:42:17;5.03;;;2.20;;
65234;SDS011;51820;48.374;10.930;2024-03-23T05:44:45;8.25;;;2.03;;
65234;SDS011;51820;48.374;10.930;2024-03-23T05:47:12;5.82;;;2.10;;
65234;SDS011;51820;48.374;10.930;2024-03-23T05:49:43;5.15;;;1.95;;
65234;SDS011;51820;48.374;10.930;2024-03-23T05:52:11;5.93;;;2.15;;
65234;SDS011;51820;48.374;10.930;2024-03-23T05:54:39;7.13;;;2.50;;
65234;SDS011;51820;48.374;10.930;2024-03-23T05:57:05;6.03;;;2.25;;
65234;SDS011;51820;48.374;10.930;2024-03-23T05:59:33;5.20;;;1.98;;
65234;SDS011;51820;48.374;10.930;2024-03-23T06:02:00;5.63;;;2.22;;
65234;SDS011;51820;48.374;10.930;2024-03-23T06:04:29;5.90;;;2.10;;
65234;SDS011;51820;48.374;10.930;2024-03-23T06:06:57;6.00;;;2.10;;
65234;SDS011;51820;48.374;10.930;2024-03-23T06:09:24;5.78;;;2.20;;
65234;SDS011;51820;48.374;10.930;2024-03-23T06:11:51;5.40;;;1.98;;
65234;SDS011;51820;48.374;10.930;2024-03-23T06:14:18;6.65;;;2.30;;
65234;SDS011;51820;48.374;10.930;2024-03-23T06:16:48;5.80;;;2.15;;
65234;SDS011;51820;48.374;10.930;2024-03-23T06:19:15;5.40;;;2.30;;
65234;SDS011;51820;48.374;10.930;2024-03-23T06:21:43;7.40;;;2.03;;
65234;SDS011;51820;48.374;10.930;2024-03-23T06:24:13;6.50;;;2.00;;
65234;SDS011;51820;48.374;10.930;2024-03-23T06:26:39;8.13;;;2.47;;
65234;SDS011;51820;48.374;10.930;2024-03-23T06:29:07;5.93;;;2.00;;
65234;SDS011;51820;48.374;10.930;2024-03-23T06:31:33;6.73;;;2.07;;
65234;SDS011;51820;48.374;10.930;2024-03-23T06:34:01;6.97;;;2.22;;
65234;SDS011;51820;48.374;10.930;2024-03-23T06:36:29;5.70;;;2.00;;
65234;SDS011;51820;48.374;10.930;2024-03-23T06:38:56;5.65;;;2.08;;
65234;SDS011;51820;48.374;10.930;2024-03-23T06:41:25;4.95;;;1.90;;
65234;SDS011;51820;48.374;10.930;2024-03-23T06:43:52;7.50;;;2.00;;
65234;SDS011;51820;48.374;10.930;2024-03-23T06:46:20;6.03;;;2.00;;
65234;SDS011;51820;48.374;10.930;2024-03-23T06:48:46;7.20;;;2.40;;
65234;SDS011;51820;48.374;10.930;2024-03-23T06:51:14;6.35;;;2.20;;
65234;SDS011;51820;48.374;10.930;2024-03-23T06:53:40;4.95;;;2.03;;
65234;SDS011;51820;48.374;10.930;2024-03-23T06:56:08;5.10;;;2.00;;
65234;SDS011;51820;48.374;10.930;2024-03-23T06:58:36;5.88;;;1.70;;
65234;SDS011;51820;48.374;10.930;2024-03-23T07:01:03;5.32;;;1.88;;
65234;SDS011;51820;48.374;10.930;2024-03-23T07:03:30;4.70;;;2.00;;
65234;SDS011;51820;48.374;10.930;2024-03-23T07:05:57;5.43;;;2.22;;
65234;SDS011;51820;48.374;10.930;2024-03-23T07:08:24;6.73;;;2.13;;
65234;SDS011;51820;48.374;10.930;2024-03-23T07:10:51;5.57;;;2.08;;
65234;SDS011;51820;48.374;10.930;2024-03-23T07:13:20;5.05;;;1.92;;
65234;SDS011;51820;48.374;10.930;2024-03-23T07:18:36;7.30;;;2.13;;
65234;SDS011;51820;48.374;10.930;2024-03-23T07:21:03;6.67;;;2.10;;
65234;SDS011;51820;48.374;10.930;2024-03-23T07:23:32;7.43;;;2.00;;
65234;SDS011;51820;48.374;10.930;2024-03-23T07:26:00;9.00;;;2.90;;
65234;SDS011;51820;48.374;10.930;2024-03-23T07:28:28;7.38;;;2.20;;
65234;SDS011;51820;48.374;10.930;2024-03-23T07:31:01;8.73;;;2.03;;
65234;SDS011;51820;48.374;10.930;2024-03-23T07:33:30;6.03;;;2.20;;
65234;SDS011;51820;48.374;10.930;2024-03-23T07:35:57;5.38;;;1.83;;
65234;SDS011;51820;48.374;10.930;2024-03-23T07:38:26;4.80;;;1.80;;
65234;SDS011;51820;48.374;10.930;2024-03-23T07:41:02;5.53;;;2.00;;
65234;SDS011;51820;48.374;10.930;2024-03-23T07:43:28;6.47;;;2.17;;
65234;SDS011;51820;48.374;10.930;2024-03-23T07:45:56;5.33;;;1.93;;
65234;SDS011;51820;48.374;10.930;2024-03-23T07:48:23;4.68;;;1.75;;
65234;SDS011;51820;48.374;10.930;2024-03-23T07:51:02;5.45;;;1.98;;
65234;SDS011;51820;48.374;10.930;2024-03-23T07:53:29;5.75;;;2.20;;
65234;SDS011;51820;48.374;10.930;2024-03-23T07:55:58;5.90;;;2.00;;
65234;SDS011;51820;48.374;10.930;2024-03-23T07:58:25;5.87;;;2.00;;
65234;SDS011;51820;48.374;10.930;2024-03-23T08:00:53;5.70;;;2.45;;
65234;SDS011;51820;48.374;10.930;2024-03-23T08:03:20;6.10;;;2.50;;
65234;SDS011;51820;48.374;10.930;2024-03-23T08:05:47;5.95;;;2.30;;
65234;SDS011;51820;48.374;10.930;2024-03-23T08:08:16;9.38;;;2.75;;
65234;SDS011;51820;48.374;10.930;2024-03-23T08:10:48;7.20;;;2.37;;
65234;SDS011;51820;48.374;10.930;2024-03-23T08:13:16;5.40;;;2.15;;
65234;SDS011;51820;48.374;10.930;2024-03-23T08:15:42;5.47;;;2.25;;
65234;SDS011;51820;48.374;10.930;2024-03-23T08:18:11;6.95;;;2.30;;
65234;SDS011;51820;48.374;10.930;2024-03-23T08:20:38;5.38;;;2.15;;
65234;SDS011;51820;48.374;10.930;2024-03-23T08:23:06;5.80;;;2.30;;
65234;SDS011;51820;48.374;10.930;2024-03-23T08:25:35;6.28;;;2.00;;
65234;SDS011;51820;48.374;10.930;2024-03-23T08:28:02;5.32;;;2.15;;
65234;SDS011;51820;48.374;10.930;2024-03-23T08:30:29;6.30;;;2.20;;
65234;SDS011;51820;48.374;10.930;2024-03-23T08:32:56;6.47;;;2.28;;
65234;SDS011;51820;48.374;10.930;2024-03-23T08:35:24;6.70;;;2.40;;
65234;SDS011;51820;48.374;10.930;2024-03-23T08:37:51;6.15;;;2.28;;
65234;SDS011;51820;48.374;10.930;2024-03-23T08:40:20;10.60;;;3.38;;
65234;SDS011;51820;48.374;10.930;2024-03-23T08:42:49;7.22;;;2.72;;
65234;SDS011;51820;48.374;10.930;2024-03-23T08:45:15;6.85;;;2.33;;
65234;SDS011;51820;48.374;10.930;2024-03-23T08:47:43;5.97;;;2.03;;
65234;SDS011;51820;48.374;10.930;2024-03-23T08:50:10;8.15;;;2.65;;
65234;SDS011;51820;48.374;10.930;2024-03-23T08:52:37;5.35;;;2.20;;
65234;SDS011;51820;48.374;10.930;2024-03-23T08:55:04;5.57;;;2.30;;
65234;SDS011;51820;48.374;10.930;2024-03-23T08:57:32;5.10;;;1.88;;
65234;SDS011;51820;48.374;10.930;2024-03-23T08:59:59;5.17;;;1.70;;
65234;SDS011;51820;48.374;10.930;2024-03-23T09:02:27;4.90;;;1.60;;
65234;SDS011;51820;48.374;10.930;2024-03-23T09:04:53;4.40;;;1.40;;
65234;SDS011;51820;48.374;10.930;2024-03-23T09:07:21;5.03;;;1.75;;
65234;SDS011;51820;48.374;10.930;2024-03-23T09:09:47;4.75;;;1.40;;
65234;SDS011;51820;48.374;10.930;2024-03-23T09:12:15;4.00;;;1.17;;
65234;SDS011;51820;48.374;10.930;2024-03-23T09:14:44;4.25;;;0.80;;
65234;SDS011;51820;48.374;10.930;2024-03-23T09:17:13;3.78;;;1.08;;
65234;SDS011;51820;48.374;10.930;2024-03-23T09:19:39;2.95;;;0.80;;
65234;SDS011;51820;48.374;10.930;2024-03-23T09:22:07;2.45;;;0.80;;
65234;SDS011;51820;48.374;10.930;2024-03-23T09:24:34;3.83;;;1.00;;
65234;SDS011;51820;48.374;10.930;2024-03-23T09:27:02;3.20;;;0.70;;
65234;SDS011;51820;48.374;10.930;2024-03-23T09:29:30;3.25;;;0.90;;
65234;SDS011;51820;48.374;10.930;2024-03-23T09:31:58;3.70;;;0.80;;
65234;SDS011;51820;48.374;10.930;2024-03-23T09:34:26;2.97;;;0.85;;
65234;SDS011;51820;48.374;10.930;2024-03-23T09:36:54;3.33;;;0.90;;
65234;SDS011;51820;48.374;10.930;2024-03-23T09:39:20;3.63;;;1.08;;
65234;SDS011;51820;48.374;10.930;2024-03-23T09:41:48;5.18;;;1.30;;
65234;SDS011;51820;48.374;10.930;2024-03-23T09:44:15;5.97;;;1.40;;
65234;SDS011;51820;48.374;10.930;2024-03-23T09:46:42;4.72;;;1.42;;
65234;SDS011;51820;48.374;10.930;2024-03-23T09:49:09;2.87;;;0.80;;
65234;SDS011;51820;48.374;10.930;2024-03-23T09:51:38;2.80;;;0.90;;
65234;SDS011;51820;48.374;10.930;2024-03-23T09:54:04;4.35;;;0.70;;
65234;SDS011;51820;48.374;10.930;2024-03-23T09:56:33;3.25;;;0.90;;
65234;SDS011;51820;48.374;10.930;2024-03-23T09:59:03;3.38;;;0.80;;
65234;SDS011;51820;48.374;10.930;2024-03-23T10:01:32;5.47;;;1.13;;
65234;SDS011;51820;48.374;10.930;2024-03-23T10:03:58;3.40;;;1.00;;
65234;SDS011;51820;48.374;10.930;2024-03-23T10:06:26;3.25;;;0.82;;
65234;SDS011;51820;48.374;10.930;2024-03-23T10:08:54;3.60;;;0.80;;
65234;SDS011;51820;48.374;10.930;2024-03-23T10:11:21;2.33;;;0.70;;
65234;SDS011;51820;48.374;10.930;2024-03-23T10:13:48;3.60;;;0.80;;
65234;SDS011;51820;48.374;10.930;2024-03-23T10:16:22;3.28;;;0.80;;
65234;SDS011;51820;48.374;10.930;2024-03-23T10:18:52;3.17;;;0.85;;
65234;SDS011;51820;48.374;10.930;2024-03-23T10:21:20;3.78;;;1.00;;
65234;SDS011;51820;48.374;10.930;2024-03-23T10:23:46;3.60;;;0.90;;
65234;SDS011;51820;48.374;10.930;2024-03-23T10:26:20;4.00;;;0.90;;
65234;SDS011;51820;48.374;10.930;2024-03-23T10:33:28;3.38;;;0.90;;
65234;SDS011;51820;48.374;10.930;2024-03-23T10:36:00;2.83;;;0.80;;
65234;SDS011;51820;48.374;10.930;2024-03-23T10:38:27;3.90;;;1.00;;
65234;SDS011;51820;48.374;10.930;2024-03-23T10:40:56;4.57;;;0.90;;
65234;SDS011;51820;48.374;10.930;2024-03-23T10:43:29;6.20;;;1.75;;
65234;SDS011;51820;48.374;10.930;2024-03-23T10:45:59;3.10;;;0.80;;
65234;SDS011;51820;48.374;10.930;2024-03-23T10:48:26;4.20;;;1.02;;
65234;SDS011;51820;48.374;10.930;2024-03-23T10:50:53;3.22;;;0.75;;
65234;SDS011;51820;48.374;10.930;2024-03-23T10:53:20;3.20;;;0.90;;
65234;SDS011;51820;48.374;10.930;2024-03-23T10:55:51;3.92;;;1.10;;
65234;SDS011;51820;48.374;10.930;2024-03-23T10:58:19;3.70;;;0.98;;
65234;SDS011;51820;48.374;10.930;2024-03-23T11:01:07;3.80;;;1.02;;
65234;SDS011;51820;48.374;10.930;2024-03-23T11:03:37;5.38;;;1.10;;
65234;SDS011;51820;48.374;10.930;2024-03-23T11:06:06;5.40;;;1.30;;
65234;SDS011;51820;48.374;10.930;2024-03-23T11:08:33;4.65;;;1.15;;
65234;SDS011;51820;48.374;10.930;2024-03-23T11:11:14;4.70;;;1.45;;
65234;SDS011;51820;48.374;10.930;2024-03-23T11:13:42;5.25;;;1.45;;
65234;SDS011;51820;48.374;10.930;2024-03-23T11:16:15;6.00;;;1.67;;
65234;SDS011;51820;48.374;10.930;2024-03-23T11:18:42;6.87;;;1.83;;
65234;SDS011;51820;48.374;10.930;2024-03-23T11:21:10;6.22;;;1.80;;
65234;SDS011;51820;48.374;10.930;2024-03-23T11:23:36;4.38;;;1.50;;
65234;SDS011;51820;48.374;10.930;2024-03-23T11:26:07;5.55;;;1.70;;
65234;SDS011;51820;48.374;10.930;2024-03-23T11:28:34;5.85;;;1.65;;
65234;SDS011;51820;48.374;10.930;2024-03-23T11:31:01;5.90;;;1.33;;
65234;SDS011;51820;48.374;10.930;2024-03-23T11:33:37;5.63;;;1.30;;
65234;SDS011;51820;48.374;10.930;2024-03-23T11:36:05;5.85;;;1.73;;
65234;SDS011;51820;48.374;10.930;2024-03-23T11:38:31;5.13;;;1.52;;
65234;SDS011;51820;48.374;10.930;2024-03-23T11:41:03;4.95;;;1.50;;
65234;SDS011;51820;48.374;10.930;2024-03-23T11:43:30;5.77;;;1.43;;
65234;SDS011;51820;48.374;10.930;2024-03-23T11:45:58;5.93;;;1.40;;
65234;SDS011;51820;48.374;10.930;2024-03-23T11:48:28;7.00;;;1.85;;
65234;SDS011;51820;48.374;10.930;2024-03-23T11:50:59;8.57;;;1.90;;
65234;SDS011;51820;48.374;10.930;2024-03-23T11:53:26;7.80;;;1.50;;
65234;SDS011;51820;48.374;10.930;2024-03-23T11:55:54;4.90;;;1.63;;
65234;SDS011;51820;48.374;10.930;2024-03-23T11:58:26;4.43;;;1.83;;
65234;SDS011;51820;48.374;10.930;2024-03-23T12:00:55;5.82;;;1.35;;
65234;SDS011;51820;48.374;10.930;2024-03-23T12:03:23;5.15;;;1.60;;
65234;SDS011;51820;48.374;10.930;2024-03-23T12:05:52;7.63;;;1.70;;
65234;SDS011;51820;48.374;10.930;2024-03-23T12:08:22;6.40;;;1.60;;
65234;SDS011;51820;48.374;10.930;2024-03-23T12:10:50;6.28;;;1.65;;
65234;SDS011;51820;48.374;10.930;2024-03-23T12:13:18;5.13;;;1.60;;
65234;SDS011;51820;48.374;10.930;2024-03-23T12:15:46;6.40;;;1.73;;
65234;SDS011;51820;48.374;10.930;2024-03-23T12:18:13;7.35;;;2.15;;
65234;SDS011;51820;48.374;10.930;2024-03-23T12:20:40;5.63;;;1.57;;
65234;SDS011;51820;48.374;10.930;2024-03-23T12:23:07;5.63;;;1.70;;
65234;SDS011;51820;48.374;10.930;2024-03-23T12:25:40;7.18;;;1.70;;
65234;SDS011;51820;48.374;10.930;2024-03-23T12:28:07;6.22;;;2.15;;
65234;SDS011;51820;48.374;10.930;2024-03-23T12:30:34;8.15;;;1.83;;
65234;SDS011;51820;48.374;10.930;2024-03-23T12:33:02;6.83;;;1.80;;
65234;SDS011;51820;48.374;10.930;2024-03-23T12:35:29;7.90;;;1.90;;
65234;SDS011;51820;48.374;10.930;2024-03-23T12:37:57;5.88;;;1.60;;
65234;SDS011;51820;48.374;10.930;2024-03-23T12:40:23;5.97;;;1.85;;
65234;SDS011;51820;48.374;10.930;2024-03-23T12:42:53;6.55;;;2.03;;
65234;SDS011;51820;48.374;10.930;2024-03-23T12:45:20;8.07;;;1.77;;
65234;SDS011;51820;48.374;10.930;2024-03-23T12:47:47;5.75;;;1.60;;
65234;SDS011;51820;48.374;10.930;2024-03-23T12:50:14;6.40;;;1.70;;
65234;SDS011;51820;48.374;10.930;2024-03-23T12:52:42;8.00;;;1.75;;
65234;SDS011;51820;48.374;10.930;2024-03-23T12:55:08;6.20;;;1.75;;
65234;SDS011;51820;48.374;10.930;2024-03-23T12:57:36;8.40;;;1.93;;
65234;SDS011;51820;48.374;10.930;2024-03-23T13:00:05;7.38;;;1.98;;
65234;SDS011;51820;48.374;10.930;2024-03-23T13:02:35;6.75;;;1.63;;
65234;SDS011;51820;48.374;10.930;2024-03-23T13:05:01;6.28;;;2.00;;
65234;SDS011;51820;48.374;10.930;2024-03-23T13:07:29;5.60;;;1.95;;
65234;SDS011;51820;48.374;10.930;2024-03-23T13:09:56;8.70;;;2.20;;
65234;SDS011;51820;48.374;10.930;2024-03-23T13:12:23;7.82;;;2.25;;
65234;SDS011;51820;48.374;10.930;2024-03-23T13:15:00;6.95;;;2.08;;
65234;SDS011;51820;48.374;10.930;2024-03-23T13:17:32;7.03;;;2.13;;
65234;SDS011;51820;48.374;10.930;2024-03-23T13:19:58;7.63;;;2.05;;
65234;SDS011;51820;48.374;10.930;2024-03-23T13:22:26;7.50;;;1.90;;
65234;SDS011;51820;48.374;10.930;2024-03-23T13:24:54;9.07;;;2.08;;
65234;SDS011;51820;48.374;10.930;2024-03-23T13:27:21;6.47;;;1.75;;
65234;SDS011;51820;48.374;10.930;2024-03-23T13:29:48;5.72;;;1.52;;
65234;SDS011;51820;48.374;10.930;2024-03-23T13:32:16;5.60;;;1.40;;
65234;SDS011;51820;48.374;10.930;2024-03-23T13:35:01;6.97;;;1.50;;
65234;SDS011;51820;48.374;10.930;2024-03-23T13:37:28;5.03;;;1.10;;
65234;SDS011;51820;48.374;10.930;2024-03-23T13:40:05;7.10;;;1.50;;
65234;SDS011;51820;48.374;10.930;2024-03-23T13:42:34;5.38;;;1.05;;
65234;SDS011;51820;48.374;10.930;2024-03-23T13:45:02;7.00;;;1.10;;
65234;SDS011;51820;48.374;10.930;2024-03-23T13:47:32;6.20;;;1.10;;
65234;SDS011;51820;48.374;10.930;2024-03-23T13:50:05;6.55;;;1.40;;
65234;SDS011;51820;48.374;10.930;2024-03-23T13:52:33;6.72;;;1.38;;
65234;SDS011;51820;48.374;10.930;2024-03-23T13:55:00;5.38;;;1.20;;
65234;SDS011;51820;48.374;10.930;2024-03-23T13:57:27;5.32;;;1.15;;
65234;SDS011;51820;48.374;10.930;2024-03-23T13:59:55;6.23;;;1.27;;
65234;SDS011;51820;48.374;10.930;2024-03-23T14:02:23;4.93;;;1.10;;
65234;SDS011;51820;48.374;10.930;2024-03-23T14:04:50;9.65;;;1.88;;
65234;SDS011;51820;48.374;10.930;2024-03-23T14:07:22;5.03;;;1.17;;
65234;SDS011;51820;48.374;10.930;2024-03-23T14:09:49;6.88;;;1.50;;
65234;SDS011;51820;48.374;10.930;2024-03-23T14:12:20;4.23;;;1.23;;
65234;SDS011;51820;48.374;10.930;2024-03-23T14:14:49;5.60;;;1.40;;
65234;SDS011;51820;48.374;10.930;2024-03-23T14:17:18;4.35;;;1.25;;
65234;SDS011;51820;48.374;10.930;2024-03-23T14:19:48;5.47;;;1.40;;
65234;SDS011;51820;48.374;10.930;2024-03-23T14:22:15;6.30;;;1.40;;
65234;SDS011;51820;48.374;10.930;2024-03-23T14:24:46;4.90;;;1.20;;
65234;SDS011;51820;48.374;10.930;2024-03-23T14:27:13;8.18;;;1.50;;
65234;SDS011;51820;48.374;10.930;2024-03-23T14:29:40;5.38;;;1.00;;
65234;SDS011;51820;48.374;10.930;2024-03-23T14:32:07;6.22;;;1.17;;
65234;SDS011;51820;48.374;10.930;2024-03-23T14:34:35;5.32;;;1.08;;
65234;SDS011;51820;48.374;10.930;2024-03-23T14:37:02;6.13;;;1.47;;
65234;SDS011;51820;48.374;10.930;2024-03-23T14:39:30;6.05;;;1.10;;
65234;SDS011;51820;48.374;10.930;2024-03-23T14:41:59;7.03;;;1.73;;
65234;SDS011;51820;48.374;10.930;2024-03-23T14:44:26;6.05;;;1.42;;
65234;SDS011;51820;48.374;10.930;2024-03-23T14:46:53;7.82;;;1.40;;
65234;SDS011;51820;48.374;10.930;2024-03-23T14:49:21;5.93;;;1.27;;
65234;SDS011;51820;48.374;10.930;2024-03-23T14:51:47;5.53;;;1.20;;
65234;SDS011;51820;48.374;10.930;2024-03-23T14:54:15;5.28;;;1.40;;
65234;SDS011;51820;48.374;10.930;2024-03-23T14:56:42;7.63;;;1.70;;
65234;SDS011;51820;48.374;10.930;2024-03-23T14:59:10;5.30;;;1.38;;
65234;SDS011;51820;48.374;10.930;2024-03-23T15:01:36;5.57;;;1.30;;
65234;SDS011;51820;48.374;10.930;2024-03-23T15:04:04;6.30;;;1.40;;
65234;SDS011;51820;48.374;10.930;2024-03-23T15:06:31;9.65;;;1.45;;
65234;SDS011;51820;48.374;10.930;2024-03-23T15:08:59;5.50;;;1.60;;
65234;SDS011;51820;48.374;10.930;2024-03-23T15:11:26;7.97;;;1.42;;
65234;SDS011;51820;48.374;10.930;2024-03-23T15:13:53;6.23;;;1.67;;
65234;SDS011;51820;48.374;10.930;2024-03-23T15:16:22;7.75;;;1.52;;
65234;SDS011;51820;48.374;10.930;2024-03-23T15:18:48;5.15;;;1.30;;
65234;SDS011;51820;48.374;10.930;2024-03-23T15:21:15;6.70;;;1.60;;
65234;SDS011;51820;48.374;10.930;2024-03-23T15:23:46;7.13;;;1.40;;
65234;SDS011;51820;48.374;10.930;2024-03-23T15:26:13;7.03;;;1.40;;
65234;SDS011;51820;48.374;10.930;2024-03-23T15:28:41;7.68;;;1.50;;
65234;SDS011;51820;48.374;10.930;2024-03-23T15:31:30;7.65;;;1.40;;
65234;SDS011;51820;48.374;10.930;2024-03-23T15:33:57;5.65;;;1.45;;
65234;SDS011;51820;48.374;10.930;2024-03-23T15:36:25;8.05;;;1.50;;
65234;SDS011;51820;48.374;10.930;2024-03-23T15:38:51;7.23;;;1.10;;